Time;durP1;ratioP1;P1;durP2;ratioP2;P2;SDS_P1;SDS_P2;PMS_P1;PMS_P2;Temp;Humidity;BMP_temperature;BMP_pressure;BME280_temperature;BME280_humidity;BME280_pressure;Samples;Min_cycle;Max_cycle;Signal;HPM_P1;HPM_P2
2023/04/18 00:02:16;;;;;;;19.73;13.52;;;;;;;;;;5028537;28;20128;-74
2023/04/18 00:04:45;;;;;;;16.30;12.35;;;;;;;;;;5029472;28;20083;-75
2023/04/18 00:07:12;;;;;;;17.75;12.82;;;;;;;;;;5028548;28;20045;-74
2023/04/18 00:09:38;;;;;;;18.80;12.57;;;;;;;;;;5027271;28;20049;-75
2023/04/18 00:12:04;;;;;;;15.75;12.30;;;;;;;;;;5026596;28;20030;-75
2023/04/18 00:14:32;;;;;;;17.52;12.25;;;;;;;;;;5042191;28;20045;-74
2023/04/18 00:17:00;;;;;;;13.98;10.93;;;;;;;;;;5026127;28;20624;-74
2023/04/18 00:19:26;;;;;;;17.00;11.68;;;;;;;;;;5025544;28;20060;-75
2023/04/18 00:21:52;;;;;;;15.48;11.52;;;;;;;;;;5025767;28;20156;-74
2023/04/18 00:24:18;;;;;;;14.95;11.77;;;;;;;;;;5027498;28;20195;-74
2023/04/18 00:26:45;;;;;;;15.90;11.23;;;;;;;;;;5028065;28;20049;-74
2023/04/18 00:29:11;;;;;;;16.38;11.77;;;;;;;;;;5025612;28;20064;-75
2023/04/18 00:31:37;;;;;;;16.48;11.35;;;;;;;;;;5024772;28;20049;-75
2023/04/18 00:34:03;;;;;;;16.92;11.60;;;;;;;;;;5027767;28;20053;-75
2023/04/18 00:36:29;;;;;;;19.35;12.00;;;;;;;;;;5025334;28;20385;-75
2023/04/18 00:38:55;;;;;;;15.25;11.77;;;;;;;;;;5026265;28;20111;-74
2023/04/18 00:41:24;;;;;;;17.52;11.88;;;;;;;;;;5025076;28;20091;-74
2023/04/18 00:43:50;;;;;;;15.10;11.35;;;;;;;;;;5026311;28;20057;-75
2023/04/18 00:46:16;;;;;;;16.75;12.27;;;;;;;;;;5026231;28;20042;-74
2023/04/18 00:48:42;;;;;;;17.27;11.98;;;;;;;;;;5026385;28;20048;-75
2023/04/18 00:51:09;;;;;;;17.42;11.70;;;;;;;;;;5025229;28;20050;-74
2023/04/18 00:53:35;;;;;;;17.75;12.55;;;;;;;;;;5025633;28;20052;-75
2023/04/18 00:56:01;;;;;;;17.90;12.63;;;;;;;;;;5026429;28;20095;-73
2023/04/18 00:58:28;;;;;;;17.17;12.85;;;;;;;;;;5025809;28;20405;-74
2023/04/18 01:00:54;;;;;;;16.83;12.38;;;;;;;;;;5025396;28;20541;-74
2023/04/18 01:03:21;;;;;;;21.20;12.57;;;;;;;;;;5024612;28;20084;-75
2023/04/18 01:05:47;;;;;;;16.95;12.80;;;;;;;;;;5026366;28;20053;-74
2023/04/18 01:08:13;;;;;;;17.45;12.80;;;;;;;;;;5026350;28;20122;-74
2023/04/18 01:10:39;;;;;;;17.60;12.90;;;;;;;;;;5027023;28;20045;-75
2023/04/18 01:13:10;;;;;;;18.75;13.20;;;;;;;;;;5025887;28;20041;-75
2023/04/18 01:15:36;;;;;;;18.60;12.82;;;;;;;;;;5024922;28;20089;-75
2023/04/18 01:18:02;;;;;;;19.65;13.18;;;;;;;;;;5025282;28;20953;-74
2023/04/18 01:20:30;;;;;;;16.33;12.43;;;;;;;;;;5024068;28;21569;-75
2023/04/18 01:22:56;;;;;;;16.95;12.23;;;;;;;;;;5024658;28;20135;-74
2023/04/18 01:25:22;;;;;;;17.70;12.48;;;;;;;;;;5026540;28;20053;-74
2023/04/18 01:27:48;;;;;;;19.10;12.32;;;;;;;;;;5024291;28;20133;-73
2023/04/18 01:30:14;;;;;;;18.20;12.65;;;;;;;;;;5025125;28;20108;-75
2023/04/18 01:32:40;;;;;;;16.83;11.88;;;;;;;;;;5023459;28;20049;-74
2023/04/18 01:35:07;;;;;;;17.40;12.65;;;;;;;;;;5025992;28;20437;-74
2023/04/18 01:37:32;;;;;;;17.05;12.35;;;;;;;;;;5024324;28;20140;-74
2023/04/18 01:39:59;;;;;;;16.48;12.35;;;;;;;;;;5026010;28;20172;-75
2023/04/18 01:42:25;;;;;;;17.20;13.23;;;;;;;;;;5024630;28;20056;-74
2023/04/18 01:44:51;;;;;;;17.73;12.63;;;;;;;;;;5025144;28;20053;-75
2023/04/18 01:47:17;;;;;;;21.02;13.10;;;;;;;;;;5024377;28;20409;-74
2023/04/18 01:49:46;;;;;;;19.10;12.90;;;;;;;;;;5025029;28;20582;-74
2023/04/18 01:52:13;;;;;;;17.75;13.93;;;;;;;;;;5011763;28;20379;-74
2023/04/18 01:54:39;;;;;;;18.13;13.48;;;;;;;;;;5025437;28;20064;-75
2023/04/18 01:57:05;;;;;;;18.63;13.55;;;;;;;;;;5024692;28;20033;-74
2023/04/18 01:59:31;;;;;;;16.90;13.60;;;;;;;;;;5023547;28;20063;-74
2023/04/18 02:01:58;;;;;;;18.42;13.43;;;;;;;;;;5024428;28;20041;-74
2023/04/18 02:04:25;;;;;;;17.65;14.15;;;;;;;;;;5025219;28;20046;-74
2023/04/18 02:06:51;;;;;;;21.30;14.45;;;;;;;;;;5025012;28;20866;-75
2023/04/18 02:09:17;;;;;;;20.73;15.18;;;;;;;;;;5024873;28;20517;-75
2023/04/18 02:11:43;;;;;;;19.35;14.35;;;;;;;;;;5022807;28;20140;-74
2023/04/18 02:14:09;;;;;;;19.33;15.38;;;;;;;;;;5024577;28;20670;-74
2023/04/18 02:16:35;;;;;;;19.52;14.32;;;;;;;;;;5023685;28;20041;-74
2023/04/18 02:19:03;;;;;;;18.65;14.32;;;;;;;;;;5022519;28;20060;-75
2023/04/18 02:21:29;;;;;;;18.23;13.27;;;;;;;;;;5022958;28;20053;-75
2023/04/18 02:23:56;;;;;;;17.65;13.55;;;;;;;;;;5020517;28;20298;-74
2023/04/18 02:26:23;;;;;;;18.70;13.02;;;;;;;;;;5025317;28;20955;-75
2023/04/18 02:28:48;;;;;;;16.83;12.82;;;;;;;;;;5023224;28;20081;-75
2023/04/18 02:31:15;;;;;;;16.60;13.10;;;;;;;;;;5024057;28;20215;-75
2023/04/18 02:33:46;;;;;;;19.98;13.30;;;;;;;;;;5022327;28;20077;-75
2023/04/18 02:36:12;;;;;;;16.45;12.52;;;;;;;;;;5024380;28;20053;-74
2023/04/18 02:38:38;;;;;;;16.27;12.27;;;;;;;;;;5023727;28;20539;-75
2023/04/18 02:41:04;;;;;;;18.90;12.85;;;;;;;;;;5024524;28;20049;-75
2023/04/18 02:43:30;;;;;;;17.85;13.23;;;;;;;;;;5024878;28;20670;-74
2023/04/18 02:45:56;;;;;;;19.15;13.25;;;;;;;;;;5024795;28;20049;-75
2023/04/18 02:48:23;;;;;;;15.93;12.98;;;;;;;;;;5023694;28;20067;-75
2023/04/18 02:50:49;;;;;;;18.30;12.57;;;;;;;;;;5022930;28;20401;-75
2023/04/18 02:53:15;;;;;;;16.45;13.02;;;;;;;;;;5024092;28;20053;-75
2023/04/18 02:55:42;;;;;;;17.15;12.48;;;;;;;;;;5022638;28;20575;-75
2023/04/18 02:58:08;;;;;;;16.40;12.65;;;;;;;;;;5020891;28;20081;-75
2023/04/18 03:00:34;;;;;;;17.08;12.43;;;;;;;;;;5018627;28;20705;-75
2023/04/18 03:03:00;;;;;;;16.90;12.15;;;;;;;;;;5022619;28;20034;-75
2023/04/18 03:05:26;;;;;;;18.98;12.70;;;;;;;;;;5025422;28;20047;-75
2023/04/18 03:07:52;;;;;;;15.82;11.57;;;;;;;;;;5022296;28;20049;-75
2023/04/18 03:10:18;;;;;;;17.20;12.10;;;;;;;;;;5023035;28;20067;-75
2023/04/18 03:12:46;;;;;;;16.23;12.43;;;;;;;;;;5024550;28;20046;-75
2023/04/18 03:15:12;;;;;;;17.08;12.65;;;;;;;;;;5040479;28;20405;-76
2023/04/18 03:17:38;;;;;;;16.60;11.93;;;;;;;;;;5022036;28;20026;-74
2023/04/18 03:20:05;;;;;;;17.60;12.52;;;;;;;;;;5022493;28;20057;-75
2023/04/18 03:22:30;;;;;;;15.95;11.82;;;;;;;;;;5023189;28;20540;-75
2023/04/18 03:24:58;;;;;;;15.50;12.02;;;;;;;;;;5023218;28;20060;-74
2023/04/18 03:27:24;;;;;;;19.73;12.60;;;;;;;;;;5023581;28;20156;-74
2023/04/18 03:29:50;;;;;;;16.13;12.48;;;;;;;;;;5005836;28;20128;-75
2023/04/18 03:32:17;;;;;;;19.65;12.70;;;;;;;;;;5023968;28;20053;-74
2023/04/18 03:34:43;;;;;;;20.98;13.90;;;;;;;;;;5022531;28;20601;-74
2023/04/18 03:37:09;;;;;;;17.77;12.98;;;;;;;;;;5023185;28;20041;-74
2023/04/18 03:39:35;;;;;;;17.88;12.43;;;;;;;;;;5022423;28;20553;-75
2023/04/18 03:42:01;;;;;;;16.38;12.48;;;;;;;;;;5023541;28;20050;-74
2023/04/18 03:44:27;;;;;;;16.83;12.00;;;;;;;;;;5024722;28;20042;-75
2023/04/18 03:46:54;;;;;;;16.40;11.95;;;;;;;;;;5025377;28;20046;-75
2023/04/18 03:49:20;;;;;;;16.42;12.18;;;;;;;;;;5026814;28;20072;-75
2023/04/18 03:51:46;;;;;;;19.23;12.25;;;;;;;;;;5025485;28;20049;-75
2023/04/18 03:54:13;;;;;;;15.45;11.77;;;;;;;;;;5027397;28;20045;-75
2023/04/18 03:56:40;;;;;;;16.50;11.30;;;;;;;;;;5026460;28;20111;-74
2023/04/18 03:59:06;;;;;;;15.68;11.55;;;;;;;;;;5026330;28;20037;-74
2023/04/18 04:01:32;;;;;;;17.00;11.23;;;;;;;;;;5027645;28;20052;-74
2023/04/18 04:03:58;;;;;;;14.82;11.18;;;;;;;;;;5025420;28;20043;-75
2023/04/18 04:06:25;;;;;;;15.80;11.18;;;;;;;;;;5027071;28;20076;-74
2023/04/18 04:08:51;;;;;;;14.10;9.75;;;;;;;;;;5025513;28;20045;-74
2023/04/18 04:11:17;;;;;;;14.68;10.48;;;;;;;;;;5028516;28;20053;-74
2023/04/18 04:13:43;;;;;;;14.40;10.30;;;;;;;;;;5027211;28;20034;-74
2023/04/18 04:16:09;;;;;;;15.88;10.38;;;;;;;;;;5027086;28;20061;-74
2023/04/18 04:18:35;;;;;;;15.55;10.75;;;;;;;;;;5025561;28;20071;-73
2023/04/18 04:21:01;;;;;;;14.57;10.57;;;;;;;;;;5022543;28;20064;-73
2023/04/18 04:23:27;;;;;;;14.85;11.00;;;;;;;;;;5025604;28;20481;-74
2023/04/18 04:25:53;;;;;;;16.10;10.68;;;;;;;;;;5024701;28;20038;-74
2023/04/18 04:28:21;;;;;;;16.77;10.30;;;;;;;;;;5026697;28;20095;-73
2023/04/18 04:30:51;;;;;;;15.27;10.50;;;;;;;;;;5024951;28;20143;-75
2023/04/18 04:33:18;;;;;;;14.48;10.02;;;;;;;;;;5025868;28;20041;-74
2023/04/18 04:35:45;;;;;;;13.95;10.05;;;;;;;;;;5026168;28;20533;-74
2023/04/18 04:38:11;;;;;;;15.70;10.48;;;;;;;;;;5025563;28;20037;-74
2023/04/18 04:40:37;;;;;;;13.25;10.13;;;;;;;;;;5025897;28;20049;-74
2023/04/18 04:43:04;;;;;;;16.55;10.73;;;;;;;;;;5024770;28;20100;-74
2023/04/18 04:45:31;;;;;;;15.20;10.40;;;;;;;;;;5026125;28;20052;-75
2023/04/18 04:47:58;;;;;;;13.88;10.48;;;;;;;;;;5025541;28;20126;-74
2023/04/18 04:50:24;;;;;;;16.60;10.98;;;;;;;;;;5025457;28;20489;-75
2023/04/18 04:52:50;;;;;;;17.05;11.65;;;;;;;;;;5024173;28;20136;-74
2023/04/18 04:55:17;;;;;;;16.05;12.35;;;;;;;;;;5026725;28;20497;-73
2023/04/18 04:57:44;;;;;;;18.45;12.93;;;;;;;;;;5026656;28;20574;-73
2023/04/18 05:00:12;;;;;;;20.73;13.98;;;;;;;;;;5026721;28;20509;-74
2023/04/18 05:02:38;;;;;;;17.15;13.05;;;;;;;;;;5041688;28;20658;-74
2023/04/18 05:05:04;;;;;;;16.38;13.05;;;;;;;;;;5024755;28;20053;-73
2023/04/18 05:07:30;;;;;;;18.55;13.23;;;;;;;;;;5024800;28;20062;-74
2023/04/18 05:09:56;;;;;;;16.27;12.88;;;;;;;;;;5024729;28;20049;-74
2023/04/18 05:12:22;;;;;;;17.65;12.75;;;;;;;;;;5025344;28;20428;-75
2023/04/18 05:14:48;;;;;;;15.52;12.63;;;;;;;;;;5025715;28;20053;-74
2023/04/18 05:17:14;;;;;;;19.02;13.48;;;;;;;;;;5024197;28;20091;-74
2023/04/18 05:19:42;;;;;;;17.10;13.55;;;;;;;;;;5026813;28;20041;-72
2023/04/18 05:22:09;;;;;;;21.25;13.23;;;;;;;;;;5044597;28;20753;-74
2023/04/18 05:24:35;;;;;;;19.08;13.20;;;;;;;;;;5046373;28;20045;-74
2023/04/18 05:27:01;;;;;;;22.77;14.43;;;;;;;;;;5027382;28;20810;-74
2023/04/18 05:29:27;;;;;;;20.88;14.48;;;;;;;;;;5029149;28;20132;-74
2023/04/18 05:31:53;;;;;;;17.65;13.95;;;;;;;;;;5010050;28;20131;-74
2023/04/18 05:34:19;;;;;;;19.75;14.00;;;;;;;;;;5028590;28;20036;-74
2023/04/18 05:36:46;;;;;;;22.00;13.90;;;;;;;;;;5045847;28;20546;-74
2023/04/18 05:39:12;;;;;;;19.67;13.93;;;;;;;;;;5027446;28;20041;-74
2023/04/18 05:41:38;;;;;;;20.42;13.68;;;;;;;;;;5027888;28;20549;-74
2023/04/18 05:44:04;;;;;;;18.65;13.63;;;;;;;;;;5045113;28;20101;-74
2023/04/18 05:46:30;;;;;;;20.58;13.57;;;;;;;;;;5045879;28;20075;-75
2023/04/18 05:48:56;;;;;;;19.40;14.05;;;;;;;;;;5026620;28;20048;-73
2023/04/18 05:51:22;;;;;;;20.13;13.98;;;;;;;;;;5026830;28;20079;-74
2023/04/18 05:53:48;;;;;;;22.67;14.88;;;;;;;;;;5028680;28;20045;-74
2023/04/18 05:56:14;;;;;;;16.88;13.55;;;;;;;;;;5027193;28;20048;-75
2023/04/18 05:58:40;;;;;;;17.27;12.48;;;;;;;;;;5046155;28;20085;-73
2023/04/18 06:01:06;;;;;;;17.00;13.02;;;;;;;;;;5026960;28;20037;-74
2023/04/18 06:03:32;;;;;;;17.95;13.15;;;;;;;;;;5045862;28;20052;-73
2023/04/18 06:05:58;;;;;;;22.95;13.38;;;;;;;;;;5026004;28;20102;-72
2023/04/18 06:08:24;;;;;;;20.13;12.90;;;;;;;;;;5026965;28;20571;-74
2023/04/18 06:10:50;;;;;;;19.13;12.20;;;;;;;;;;5028017;28;20052;-74
2023/04/18 06:13:16;;;;;;;20.23;13.23;;;;;;;;;;5027531;28;20515;-75
2023/04/18 06:15:42;;;;;;;16.42;12.00;;;;;;;;;;5027977;28;20111;-73
2023/04/18 06:18:08;;;;;;;20.98;13.20;;;;;;;;;;5009418;28;20120;-74
2023/04/18 06:20:34;;;;;;;17.83;13.65;;;;;;;;;;5027280;28;20492;-74
2023/04/18 06:23:00;;;;;;;19.58;13.90;;;;;;;;;;5025896;28;20488;-75
2023/04/18 06:25:26;;;;;;;18.08;12.80;;;;;;;;;;5027733;28;20045;-75
2023/04/18 06:27:53;;;;;;;19.67;13.32;;;;;;;;;;5025792;28;20041;-74
2023/04/18 06:30:20;;;;;;;17.98;12.68;;;;;;;;;;5027400;28;20404;-75
2023/04/18 06:32:46;;;;;;;20.30;11.88;;;;;;;;;;5026644;28;20049;-74
2023/04/18 06:35:12;;;;;;;18.33;12.40;;;;;;;;;;5027422;28;20452;-75
2023/04/18 06:37:42;;;;;;;19.67;12.57;;;;;;;;;;5026726;28;20053;-73
2023/04/18 06:40:09;;;;;;;16.33;11.57;;;;;;;;;;5026531;28;20164;-75
2023/04/18 06:42:35;;;;;;;18.42;12.50;;;;;;;;;;5027446;28;20068;-75
2023/04/18 06:45:02;;;;;;;16.95;12.27;;;;;;;;;;5025789;28;20528;-74
2023/04/18 06:47:28;;;;;;;16.60;12.07;;;;;;;;;;5044513;28;20045;-75
2023/04/18 06:49:54;;;;;;;19.00;12.30;;;;;;;;;;5026512;28;20834;-75
2023/04/18 06:52:20;;;;;;;17.88;11.80;;;;;;;;;;5025636;28;20501;-74
2023/04/18 06:54:46;;;;;;;13.27;11.00;;;;;;;;;;5046041;28;20091;-74
2023/04/18 06:57:12;;;;;;;17.48;10.70;;;;;;;;;;5043288;28;20068;-74
2023/04/18 06:59:40;;;;;;;18.00;11.50;;;;;;;;;;5028093;28;20088;-75
2023/04/18 07:02:07;;;;;;;20.85;11.30;;;;;;;;;;5008646;28;20057;-75
2023/04/18 07:04:32;;;;;;;22.08;12.10;;;;;;;;;;5044020;28;20052;-74
2023/04/18 07:07:00;;;;;;;17.48;11.15;;;;;;;;;;5025308;28;20053;-73
2023/04/18 07:09:26;;;;;;;14.57;10.98;;;;;;;;;;5026663;28;20052;-75
2023/04/18 07:11:52;;;;;;;23.55;11.85;;;;;;;;;;5026160;28;20037;-74
2023/04/18 07:14:20;;;;;;;17.80;11.13;;;;;;;;;;5026958;28;20056;-75
2023/04/18 07:16:46;;;;;;;16.77;11.10;;;;;;;;;;5026216;28;20485;-75
2023/04/18 07:19:12;;;;;;;20.23;11.35;;;;;;;;;;5028605;28;20291;-74
2023/04/18 07:21:39;;;;;;;13.52;10.73;;;;;;;;;;5029493;28;20056;-74
2023/04/18 07:24:05;;;;;;;15.48;11.55;;;;;;;;;;5030107;28;20440;-75
2023/04/18 07:26:32;;;;;;;17.35;11.75;;;;;;;;;;5048302;28;20041;-75
2023/04/18 07:28:57;;;;;;;16.95;11.30;;;;;;;;;;5030392;28;20064;-75
2023/04/18 07:31:24;;;;;;;15.88;11.30;;;;;;;;;;5014014;28;20084;-75
2023/04/18 07:33:50;;;;;;;17.17;11.00;;;;;;;;;;5030945;28;20111;-76
2023/04/18 07:36:17;;;;;;;14.85;11.15;;;;;;;;;;5029442;28;20980;-75
2023/04/18 07:38:43;;;;;;;17.27;11.02;;;;;;;;;;5030798;28;20123;-75
2023/04/18 07:41:09;;;;;;;16.20;11.02;;;;;;;;;;5028854;28;20501;-74
2023/04/18 07:43:37;;;;;;;14.88;10.55;;;;;;;;;;5049199;28;20045;-75
2023/04/18 07:46:03;;;;;;;17.02;10.30;;;;;;;;;;5029523;28;20063;-75
2023/04/18 07:48:29;;;;;;;15.65;9.80;;;;;;;;;;5029773;28;20052;-75
2023/04/18 07:50:55;;;;;;;16.25;10.50;;;;;;;;;;5029006;28;20041;-75
2023/04/18 07:53:21;;;;;;;14.80;9.98;;;;;;;;;;5029625;28;20072;-75
2023/04/18 07:55:47;;;;;;;13.95;9.77;;;;;;;;;;5030719;28;20081;-75
2023/04/18 07:58:13;;;;;;;15.75;10.15;;;;;;;;;;5047085;28;20091;-75
2023/04/18 08:00:41;;;;;;;17.23;9.93;;;;;;;;;;5029438;28;20041;-75
2023/04/18 08:03:09;;;;;;;13.65;9.38;;;;;;;;;;5029093;28;20041;-75
2023/04/18 08:05:35;;;;;;;14.35;8.68;;;;;;;;;;5030574;28;20053;-76
2023/04/18 08:08:01;;;;;;;14.38;9.52;;;;;;;;;;5047627;28;20443;-74
2023/04/18 08:10:27;;;;;;;13.43;8.82;;;;;;;;;;5028390;28;20048;-75
2023/04/18 08:12:53;;;;;;;18.08;8.18;;;;;;;;;;5030788;28;20556;-76
2023/04/18 08:15:19;;;;;;;16.45;8.50;;;;;;;;;;5029202;28;20136;-75
2023/04/18 08:17:47;;;;;;;13.35;8.25;;;;;;;;;;5029600;28;20056;-75
2023/04/18 08:20:14;;;;;;;12.40;7.70;;;;;;;;;;5028385;28;20065;-75
2023/04/18 08:22:40;;;;;;;59.35;10.45;;;;;;;;;;5029790;28;20593;-76
2023/04/18 08:25:06;;;;;;;27.80;8.25;;;;;;;;;;5029457;28;20049;-75
2023/04/18 08:27:33;;;;;;;12.38;7.55;;;;;;;;;;5029999;28;20514;-76
2023/04/18 08:29:59;;;;;;;12.02;7.72;;;;;;;;;;5027815;28;20041;-75
2023/04/18 08:32:25;;;;;;;22.45;7.95;;;;;;;;;;5046151;28;20075;-75
2023/04/18 08:34:51;;;;;;;12.52;7.20;;;;;;;;;;5029895;28;20785;-76
2023/04/18 08:37:17;;;;;;;12.68;7.50;;;;;;;;;;5028017;28;20044;-76
2023/04/18 08:39:43;;;;;;;15.60;7.72;;;;;;;;;;5029028;28;20048;-75
2023/04/18 08:42:10;;;;;;;24.23;8.02;;;;;;;;;;5011744;28;20048;-76
2023/04/18 08:44:36;;;;;;;11.10;7.35;;;;;;;;;;5028836;28;20053;-75
2023/04/18 08:47:02;;;;;;;11.15;7.65;;;;;;;;;;5045112;28;20768;-75
2023/04/18 08:49:30;;;;;;;11.85;8.00;;;;;;;;;;5028828;28;20037;-74
2023/04/18 08:51:57;;;;;;;10.52;7.32;;;;;;;;;;5046248;28;20045;-76
2023/04/18 08:54:23;;;;;;;12.45;8.02;;;;;;;;;;5045874;28;20526;-74
2023/04/18 08:57:06;;;;;;;11.38;7.35;;;;;;;;;;5029784;28;20061;-75
2023/04/18 08:59:34;;;;;;;9.55;7.40;;;;;;;;;;5027568;28;20081;-76
2023/04/18 09:02:01;;;;;;;9.75;7.50;;;;;;;;;;5028420;28;20482;-75
2023/04/18 09:04:40;;;;;;;12.55;7.68;;;;;;;;;;5029065;28;20571;-76
2023/04/18 09:07:10;;;;;;;9.48;7.22;;;;;;;;;;5045407;28;20041;-75
2023/04/18 09:09:45;;;;;;;12.15;7.85;;;;;;;;;;5047009;28;20043;-74
2023/04/18 09:12:17;;;;;;;11.90;7.43;;;;;;;;;;5044203;28;20377;-76
2023/04/18 09:14:44;;;;;;;10.98;7.22;;;;;;;;;;5047111;28;20195;-76
2023/04/18 09:17:12;;;;;;;11.70;7.78;;;;;;;;;;5028051;28;20049;-76
2023/04/18 09:19:45;;;;;;;11.35;7.53;;;;;;;;;;5027636;28;20204;-75
2023/04/18 09:22:12;;;;;;;9.82;7.63;;;;;;;;;;5016067;28;20048;-76
2023/04/18 09:24:38;;;;;;;9.75;7.28;;;;;;;;;;5045842;28;20145;-75
2023/04/18 09:27:13;;;;;;;14.75;7.60;;;;;;;;;;5020839;28;20441;-76
2023/04/18 09:29:45;;;;;;;9.77;7.35;;;;;;;;;;5027216;28;20052;-75
2023/04/18 09:32:11;;;;;;;12.00;8.13;;;;;;;;;;5045617;28;20786;-74
2023/04/18 09:34:41;;;;;;;12.43;7.18;;;;;;;;;;5028556;28;20041;-76
2023/04/18 09:37:08;;;;;;;10.15;7.28;;;;;;;;;;5045851;28;20509;-75
2023/04/18 09:39:34;;;;;;;10.50;7.55;;;;;;;;;;5029177;28;20095;-75
2023/04/18 09:42:01;;;;;;;12.32;7.68;;;;;;;;;;5027931;28;20576;-75
2023/04/18 09:44:27;;;;;;;10.13;8.18;;;;;;;;;;5012279;28;20728;-76
2023/04/18 09:46:53;;;;;;;10.32;7.85;;;;;;;;;;5026580;28;20539;-76
2023/04/18 09:49:19;;;;;;;13.18;7.88;;;;;;;;;;5028041;28;20056;-76
2023/04/18 09:51:45;;;;;;;11.43;7.72;;;;;;;;;;5044848;28;20041;-75
2023/04/18 09:54:15;;;;;;;9.90;7.40;;;;;;;;;;5027251;28;20036;-75
2023/04/18 09:56:44;;;;;;;14.98;7.38;;;;;;;;;;5046534;28;20135;-76
2023/04/18 09:59:11;;;;;;;10.20;7.18;;;;;;;;;;5026720;28;20045;-76
2023/04/18 10:01:43;;;;;;;10.82;7.60;;;;;;;;;;5046048;28;20067;-76
2023/04/18 10:04:11;;;;;;;11.10;7.70;;;;;;;;;;5026978;28;20574;-76
2023/04/18 10:06:38;;;;;;;12.73;8.07;;;;;;;;;;5045111;28;20543;-75
2023/04/18 10:09:06;;;;;;;10.18;8.02;;;;;;;;;;5027587;28;20051;-75
2023/04/18 10:11:32;;;;;;;12.27;7.75;;;;;;;;;;5026654;28;20067;-76
2023/04/18 10:14:00;;;;;;;14.23;8.55;;;;;;;;;;5045937;28;20037;-76
2023/04/18 10:16:28;;;;;;;10.77;8.38;;;;;;;;;;5026483;28;20060;-75
2023/04/18 10:18:54;;;;;;;16.00;8.93;;;;;;;;;;5027269;28;20496;-75
2023/04/18 10:21:20;;;;;;;13.75;8.60;;;;;;;;;;5021879;28;20057;-75
2023/04/18 10:23:47;;;;;;;15.25;8.43;;;;;;;;;;5041349;28;20053;-75
2023/04/18 10:26:14;;;;;;;12.55;8.73;;;;;;;;;;5023721;28;20061;-76
2023/04/18 10:28:56;;;;;;;16.73;8.88;;;;;;;;;;5019074;28;20037;-76
2023/04/18 10:31:26;;;;;;;12.20;8.50;;;;;;;;;;5023520;28;20049;-75
2023/04/18 10:34:05;;;;;;;13.48;8.27;;;;;;;;;;5024292;28;20049;-75
2023/04/18 10:36:31;;;;;;;16.27;9.00;;;;;;;;;;5024153;28;20175;-75
2023/04/18 10:39:02;;;;;;;13.23;8.73;;;;;;;;;;5023378;28;20088;-75
2023/04/18 10:41:32;;;;;;;15.38;9.40;;;;;;;;;;5040176;28;20160;-75
2023/04/18 10:44:07;;;;;;;13.38;9.43;;;;;;;;;;5025506;28;20115;-75
2023/04/18 10:46:34;;;;;;;12.80;9.23;;;;;;;;;;5028174;28;20493;-75
2023/04/18 10:49:19;;;;;;;11.75;8.18;;;;;;;;;;5024323;28;20405;-75
2023/04/18 10:51:46;;;;;;;16.70;9.25;;;;;;;;;;5015059;28;20076;-75
2023/04/18 10:54:18;;;;;;;14.63;8.43;;;;;;;;;;5023842;28;20524;-75
2023/04/18 10:56:53;;;;;;;13.40;8.65;;;;;;;;;;5023616;28;20071;-75
2023/04/18 10:59:22;;;;;;;12.52;8.57;;;;;;;;;;5024377;28;20060;-75
2023/04/18 11:01:49;;;;;;;12.07;8.70;;;;;;;;;;5022843;28;20045;-75
2023/04/18 11:04:15;;;;;;;17.30;9.40;;;;;;;;;;5039322;28;20099;-75
2023/04/18 11:06:49;;;;;;;17.90;9.00;;;;;;;;;;5022941;28;20091;-75
2023/04/18 11:09:15;;;;;;;13.52;8.20;;;;;;;;;;5023037;28;20049;-76
2023/04/18 11:11:42;;;;;;;13.88;8.75;;;;;;;;;;5024804;28;20055;-76
2023/04/18 11:14:08;;;;;;;12.57;8.50;;;;;;;;;;5040005;28;20128;-76
2023/04/18 11:16:34;;;;;;;14.30;9.63;;;;;;;;;;5022573;28;20045;-76
2023/04/18 11:19:00;;;;;;;16.20;8.20;;;;;;;;;;5024997;28;20042;-74
2023/04/18 11:21:27;;;;;;;13.18;8.57;;;;;;;;;;5021194;28;20057;-75
2023/04/18 11:23:56;;;;;;;13.95;8.85;;;;;;;;;;5025116;28;20060;-75
2023/04/18 11:26:25;;;;;;;13.93;8.70;;;;;;;;;;5022286;28;20060;-76
2023/04/18 11:28:52;;;;;;;13.88;8.52;;;;;;;;;;5023835;28;20092;-75
2023/04/18 11:31:18;;;;;;;12.18;8.43;;;;;;;;;;5022815;28;20076;-74
2023/04/18 11:33:47;;;;;;;11.93;8.25;;;;;;;;;;5038830;28;20551;-75
2023/04/18 11:36:13;;;;;;;14.48;8.45;;;;;;;;;;5022199;28;20117;-75
2023/04/18 11:38:40;;;;;;;22.50;8.93;;;;;;;;;;5023066;28;20421;-75
2023/04/18 11:41:12;;;;;;;16.73;9.63;;;;;;;;;;5040538;28;20030;-75
2023/04/18 11:43:41;;;;;;;15.07;8.60;;;;;;;;;;5024309;28;20108;-75
2023/04/18 11:46:07;;;;;;;13.02;8.10;;;;;;;;;;5040291;28;20053;-75
2023/04/18 11:48:34;;;;;;;10.75;9.27;;;;;;;;;;5039071;28;20033;-75
2023/04/18 11:51:00;;;;;;;15.57;9.48;;;;;;;;;;5024723;28;20084;-75
2023/04/18 11:53:33;;;;;;;10.98;8.20;;;;;;;;;;5039700;28;20049;-75
2023/04/18 11:55:59;;;;;;;15.63;8.90;;;;;;;;;;5039513;28;20042;-76
2023/04/18 11:58:32;;;;;;;12.55;8.68;;;;;;;;;;5039579;28;20072;-76
2023/04/18 12:00:59;;;;;;;19.27;9.25;;;;;;;;;;5021869;28;20529;-75
2023/04/18 12:03:26;;;;;;;12.75;8.73;;;;;;;;;;5022809;28;20061;-75
2023/04/18 12:05:59;;;;;;;16.20;8.55;;;;;;;;;;5024959;28;20626;-75
2023/04/18 12:08:25;;;;;;;11.93;8.82;;;;;;;;;;5036589;28;20599;-74
2023/04/18 12:10:52;;;;;;;11.93;8.05;;;;;;;;;;5044136;28;20099;-76
2023/04/18 12:13:23;;;;;;;12.65;8.27;;;;;;;;;;5042833;28;20084;-76
2023/04/18 12:15:49;;;;;;;12.38;8.30;;;;;;;;;;5043361;28;20512;-76
2023/04/18 12:18:18;;;;;;;14.77;8.48;;;;;;;;;;5041046;28;20042;-75
2023/04/18 12:20:53;;;;;;;21.42;7.90;;;;;;;;;;5043883;28;20432;-75
2023/04/18 12:23:29;;;;;;;12.18;8.07;;;;;;;;;;5011064;28;20045;-76
2023/04/18 12:26:14;;;;;;;9.77;7.15;;;;;;;;;;5043376;28;20266;-76
2023/04/18 12:28:52;;;;;;;11.38;7.88;;;;;;;;;;5025113;28;20128;-76
2023/04/18 12:31:20;;;;;;;11.98;7.00;;;;;;;;;;5025480;28;20041;-75
2023/04/18 12:33:46;;;;;;;7.47;6.37;;;;;;;;;;5025741;28;20042;-75
2023/04/18 12:36:12;;;;;;;11.60;6.60;;;;;;;;;;5024675;28;20045;-75
2023/04/18 12:38:38;;;;;;;8.93;5.80;;;;;;;;;;5026570;28;20048;-76
2023/04/18 12:41:04;;;;;;;14.63;5.97;;;;;;;;;;5040824;28;20084;-76
2023/04/18 12:43:30;;;;;;;8.93;5.93;;;;;;;;;;5026317;28;20103;-76
2023/04/18 12:45:58;;;;;;;8.40;5.47;;;;;;;;;;5025149;28;20053;-76
2023/04/18 12:48:24;;;;;;;8.25;6.03;;;;;;;;;;5025947;28;20071;-76
2023/04/18 12:50:50;;;;;;;9.00;6.05;;;;;;;;;;5026046;28;20075;-76
2023/04/18 12:53:16;;;;;;;6.22;5.32;;;;;;;;;;5026926;28;20084;-76
2023/04/18 12:55:42;;;;;;;16.83;6.80;;;;;;;;;;5026278;28;20493;-75
2023/04/18 12:58:08;;;;;;;6.35;5.32;;;;;;;;;;5025717;28;20128;-75
2023/04/18 13:00:34;;;;;;;6.60;5.50;;;;;;;;;;5042863;28;20045;-76
2023/04/18 13:03:00;;;;;;;7.80;4.63;;;;;;;;;;5024374;28;20049;-76
2023/04/18 13:05:27;;;;;;;9.18;4.43;;;;;;;;;;5042843;28;20048;-76
2023/04/18 13:07:53;;;;;;;10.32;4.43;;;;;;;;;;5025432;28;20084;-75
2023/04/18 13:10:20;;;;;;;5.00;4.32;;;;;;;;;;5025101;28;20041;-76
2023/04/18 13:12:46;;;;;;;5.60;3.90;;;;;;;;;;5025394;28;20080;-75
2023/04/18 13:15:12;;;;;;;6.65;4.30;;;;;;;;;;5041140;28;20044;-76
2023/04/18 13:17:39;;;;;;;9.90;3.97;;;;;;;;;;5041519;28;20132;-77
2023/04/18 13:20:06;;;;;;;6.65;4.25;;;;;;;;;;5025907;28;20084;-76
2023/04/18 13:22:32;;;;;;;5.95;4.40;;;;;;;;;;5028318;28;20077;-76
2023/04/18 13:24:58;;;;;;;5.18;4.45;;;;;;;;;;5045481;28;20048;-76
2023/04/18 13:27:24;;;;;;;10.60;4.90;;;;;;;;;;5045630;28;20390;-76
2023/04/18 13:29:50;;;;;;;5.90;4.78;;;;;;;;;;5045642;28;20090;-76
2023/04/18 13:32:16;;;;;;;6.65;4.25;;;;;;;;;;5045366;28;20033;-76
2023/04/18 13:34:44;;;;;;;8.68;4.75;;;;;;;;;;5028340;28;20193;-75
2023/04/18 13:37:10;;;;;;;7.20;4.95;;;;;;;;;;5027318;28;20072;-76
2023/04/18 13:39:36;;;;;;;12.13;5.00;;;;;;;;;;5028788;28;20083;-75
2023/04/18 13:42:03;;;;;;;7.28;4.95;;;;;;;;;;5028056;28;20072;-76
2023/04/18 13:44:29;;;;;;;6.55;4.60;;;;;;;;;;5028402;28;20127;-76
2023/04/18 13:46:55;;;;;;;7.85;4.60;;;;;;;;;;5044771;28;20033;-76
2023/04/18 13:49:21;;;;;;;8.70;4.78;;;;;;;;;;5045530;28;20037;-75
2023/04/18 13:51:49;;;;;;;6.35;5.32;;;;;;;;;;5027076;28;20048;-77
2023/04/18 13:54:15;;;;;;;6.65;5.03;;;;;;;;;;5027532;28;20558;-76
2023/04/18 13:56:42;;;;;;;8.52;5.47;;;;;;;;;;5028755;28;20408;-76
2023/04/18 13:59:08;;;;;;;12.05;5.63;;;;;;;;;;5044459;28;20083;-76
2023/04/18 14:01:34;;;;;;;11.23;5.63;;;;;;;;;;5045739;28;20116;-75
2023/04/18 14:04:01;;;;;;;9.75;5.32;;;;;;;;;;5044566;28;20047;-76
2023/04/18 14:06:26;;;;;;;9.13;5.50;;;;;;;;;;5028562;28;20045;-76
2023/04/18 14:08:53;;;;;;;7.55;5.47;;;;;;;;;;5045263;28;20059;-76
2023/04/18 14:11:19;;;;;;;8.57;5.45;;;;;;;;;;5046098;28;20083;-76
2023/04/18 14:13:45;;;;;;;9.63;5.63;;;;;;;;;;5045566;28;20043;-76
2023/04/18 14:16:11;;;;;;;10.35;6.22;;;;;;;;;;5027205;28;20052;-76
2023/04/18 14:18:38;;;;;;;12.80;5.63;;;;;;;;;;5026766;28;20094;-76
2023/04/18 14:21:05;;;;;;;9.23;6.43;;;;;;;;;;5043980;28;20053;-75
2023/04/18 14:23:31;;;;;;;9.40;6.38;;;;;;;;;;5027704;28;20127;-76